Time;durP1;ratioP1;P1;durP2;ratioP2;P2;SDS_P1;SDS_P2;PMS_P1;PMS_P2;Temp;Humidity;BMP_temperature;BMP_pressure;BME280_temperature;BME280_humidity;BME280_pressure;Samples;Min_cycle;Max_cycle;Signal;HPM_P1;HPM_P2
2023/12/28 00:01:23;;;;;;;8.02;5.28;;;9.40;99.90;;;;;;4977354;28;20025;-89
2023/12/28 00:03:49;;;;;;;8.68;4.53;;;9.40;99.90;;;;;;4976839;28;20018;-88
2023/12/28 00:06:15;;;;;;;9.93;5.57;;;9.40;99.90;;;;;;4975196;28;20038;-88
2023/12/28 00:08:40;;;;;;;8.93;4.47;;;9.30;99.90;;;;;;4976950;28;20101;-87
2023/12/28 00:11:06;;;;;;;7.07;4.82;;;9.30;99.90;;;;;;4976811;28;20502;-88
2023/12/28 00:13:32;;;;;;;5.43;3.83;;;9.30;99.90;;;;;;4976592;28;20018;-89
2023/12/28 00:15:57;;;;;;;7.95;4.88;;;9.30;99.90;;;;;;4973618;28;20517;-88
2023/12/28 00:18:23;;;;;;;8.43;4.60;;;9.40;99.90;;;;;;4977041;28;20081;-89
2023/12/28 00:20:49;;;;;;;9.35;4.95;;;9.30;99.90;;;;;;4976727;28;20014;-88
2023/12/28 00:23:14;;;;;;;9.23;5.25;;;9.30;99.90;;;;;;4976106;28;20034;-88
2023/12/28 00:25:40;;;;;;;9.75;5.07;;;9.30;99.90;;;;;;4976354;28;20037;-88
2023/12/28 00:28:05;;;;;;;8.77;4.97;;;9.30;99.90;;;;;;4976583;28;20027;-89
2023/12/28 00:30:32;;;;;;;9.88;5.35;;;9.30;99.90;;;;;;4976420;28;20041;-89
2023/12/28 00:32:57;;;;;;;10.35;4.63;;;9.30;99.90;;;;;;4993407;28;20057;-89
2023/12/28 00:35:23;;;;;;;8.15;4.68;;;9.30;99.90;;;;;;4975297;28;20058;-88
2023/12/28 00:37:49;;;;;;;8.90;4.65;;;9.30;99.90;;;;;;4975152;28;20026;-88
2023/12/28 00:40:14;;;;;;;8.82;4.50;;;9.30;99.90;;;;;;4978729;28;20050;-90
2023/12/28 00:42:43;;;;;;;8.65;4.85;;;9.30;99.90;;;;;;4976299;28;20022;-88
2023/12/28 00:45:09;;;;;;;8.02;4.50;;;9.30;99.90;;;;;;4972953;28;20022;-88
2023/12/28 00:47:35;;;;;;;8.00;4.50;;;9.30;99.90;;;;;;4993667;28;20559;-89
2023/12/28 00:50:00;;;;;;;8.35;4.75;;;9.30;99.90;;;;;;4993428;28;20033;-89
2023/12/28 00:52:26;;;;;;;9.40;4.97;;;9.30;99.90;;;;;;4976040;28;20097;-88
2023/12/28 00:54:51;;;;;;;11.18;4.65;;;9.30;99.90;;;;;;4975975;28;20022;-88
2023/12/28 00:57:17;;;;;;;7.95;4.53;;;9.30;99.90;;;;;;4993330;28;20033;-88
2023/12/28 00:59:43;;;;;;;9.15;4.72;;;9.30;99.90;;;;;;4975900;28;20018;-88
2023/12/28 01:02:09;;;;;;;8.82;4.75;;;9.30;99.90;;;;;;4974768;28;20085;-89
2023/12/28 01:04:34;;;;;;;8.63;4.85;;;9.30;99.90;;;;;;4991260;28;20058;-89
2023/12/28 01:07:02;;;;;;;10.25;5.00;;;9.30;99.90;;;;;;4975731;28;20026;-88
2023/12/28 01:09:27;;;;;;;8.07;5.10;;;9.30;99.90;;;;;;4971907;28;20029;-88
2023/12/28 01:11:53;;;;;;;8.20;4.68;;;9.30;99.90;;;;;;4975808;28;20073;-89
2023/12/28 01:14:19;;;;;;;14.48;6.15;;;9.30;99.90;;;;;;4978382;28;20018;-87
2023/12/28 01:16:44;;;;;;;8.30;4.60;;;9.30;99.90;;;;;;4992697;28;20022;-88
2023/12/28 01:19:10;;;;;;;10.88;5.38;;;9.30;99.90;;;;;;4975650;28;20138;-87
2023/12/28 01:21:36;;;;;;;11.60;4.72;;;9.30;99.90;;;;;;4983613;28;20106;-89
2023/12/28 01:24:02;;;;;;;10.18;4.75;;;9.30;99.90;;;;;;4974948;28;20033;-88
2023/12/28 01:26:27;;;;;;;8.95;5.57;;;9.30;99.90;;;;;;4975229;28;20033;-89
2023/12/28 01:28:53;;;;;;;9.07;4.85;;;9.30;99.90;;;;;;4971378;28;20026;-89
2023/12/28 01:31:18;;;;;;;7.30;4.57;;;9.30;99.90;;;;;;4987932;28;20290;-87
2023/12/28 01:33:44;;;;;;;8.90;4.75;;;9.30;99.90;;;;;;4975159;28;20153;-89
2023/12/28 01:36:20;;;;;;;7.43;4.60;;;9.30;99.90;;;;;;4975105;28;20080;-88
2023/12/28 01:38:46;;;;;;;6.78;4.25;;;9.30;99.90;;;;;;4974903;28;20329;-88
2023/12/28 01:41:13;;;;;;;7.15;4.63;;;9.30;99.90;;;;;;4975141;28;20019;-89
2023/12/28 01:43:39;;;;;;;8.68;4.40;;;9.30;99.90;;;;;;4992159;28;20030;-87
2023/12/28 01:46:06;;;;;;;9.07;4.82;;;9.30;99.90;;;;;;4989193;28;20026;-89
2023/12/28 01:48:33;;;;;;;8.02;4.68;;;9.30;99.90;;;;;;4999651;28;20022;-88
2023/12/28 01:50:58;;;;;;;7.10;3.95;;;9.30;99.90;;;;;;4992418;28;20476;-88
2023/12/28 01:53:24;;;;;;;9.27;4.82;;;9.30;99.90;;;;;;4981484;28;20030;-88
2023/12/28 01:55:50;;;;;;;7.93;4.80;;;9.30;99.90;;;;;;4979150;28;20030;-88
2023/12/28 01:58:16;;;;;;;11.10;4.70;;;9.30;99.90;;;;;;4974844;28;20439;-88
2023/12/28 02:00:42;;;;;;;8.23;4.78;;;9.30;99.90;;;;;;4974977;28;20092;-88
2023/12/28 02:03:08;;;;;;;10.82;5.15;;;9.30;99.90;;;;;;4977908;28;20029;-89
2023/12/28 02:05:34;;;;;;;9.48;5.50;;;9.30;99.90;;;;;;4992010;28;20026;-88
2023/12/28 02:08:00;;;;;;;9.23;5.05;;;9.30;99.90;;;;;;4975006;28;20019;-88
2023/12/28 02:10:26;;;;;;;9.40;5.03;;;9.30;99.90;;;;;;4974319;28;20125;-89
2023/12/28 02:12:53;;;;;;;9.63;5.03;;;9.30;99.90;;;;;;4992007;28;20037;-87
2023/12/28 02:15:19;;;;;;;12.65;5.30;;;9.30;99.90;;;;;;4991706;28;20031;-88
2023/12/28 02:18:15;;;;;;;8.68;5.28;;;9.30;99.90;;;;;;4978904;28;20442;-89
2023/12/28 02:20:42;;;;;;;10.73;5.32;;;9.30;99.90;;;;;;4973258;28;20022;-89
2023/12/28 02:23:09;;;;;;;8.00;5.05;;;9.30;99.90;;;;;;4979234;28;20487;-89
2023/12/28 02:25:35;;;;;;;10.02;4.63;;;9.30;99.90;;;;;;4972625;28;20065;-88
2023/12/28 02:28:00;;;;;;;10.02;4.95;;;9.30;99.90;;;;;;4972462;28;20030;-88
2023/12/28 02:30:26;;;;;;;8.93;4.90;;;9.30;99.90;;;;;;4970262;28;20023;-89
2023/12/28 02:33:10;;;;;;;8.80;4.53;;;9.30;99.90;;;;;;4969116;28;20105;-89
2023/12/28 02:35:43;;;;;;;9.07;4.78;;;9.30;99.90;;;;;;4970561;28;20034;-89
2023/12/28 02:38:10;;;;;;;16.42;5.63;;;9.30;99.90;;;;;;4985712;28;20550;-88
2023/12/28 02:40:43;;;;;;;11.07;5.15;;;9.20;99.90;;;;;;4979156;28;20022;-89
2023/12/28 02:43:10;;;;;;;8.43;4.38;;;9.20;99.90;;;;;;4967262;28;20069;-88
2023/12/28 02:45:37;;;;;;;9.10;5.32;;;9.30;99.90;;;;;;4991409;28;20033;-89
2023/12/28 02:48:04;;;;;;;8.23;4.90;;;9.30;99.90;;;;;;4971297;28;20023;-87
2023/12/28 02:50:32;;;;;;;7.88;4.75;;;9.30;99.90;;;;;;4974286;28;20093;-88
2023/12/28 02:52:58;;;;;;;12.52;5.30;;;9.30;99.90;;;;;;4974413;28;20019;-88
2023/12/28 02:55:23;;;;;;;9.25;5.50;;;9.30;99.90;;;;;;4979589;28;20033;-88
2023/12/28 02:57:50;;;;;;;9.25;5.22;;;9.20;99.90;;;;;;4975556;28;20113;-89
2023/12/28 03:00:16;;;;;;;8.45;5.03;;;9.30;99.90;;;;;;4974391;28;20018;-89
2023/12/28 03:02:42;;;;;;;13.52;5.22;;;9.20;99.90;;;;;;4987317;28;20145;-88
2023/12/28 03:05:08;;;;;;;8.85;5.13;;;9.20;99.90;;;;;;4973881;28;20113;-89
2023/12/28 03:07:34;;;;;;;8.15;5.30;;;9.20;99.90;;;;;;4971742;28;20971;-87
2023/12/28 03:10:00;;;;;;;11.98;5.53;;;9.20;99.90;;;;;;4990072;28;20019;-88
2023/12/28 03:12:27;;;;;;;9.18;4.88;;;9.20;99.90;;;;;;4991445;28;20022;-88
2023/12/28 03:14:53;;;;;;;11.73;5.28;;;9.20;99.90;;;;;;4966014;28;20054;-89
2023/12/28 03:17:19;;;;;;;9.95;5.22;;;9.20;99.90;;;;;;4973965;28;20116;-87
2023/12/28 03:19:44;;;;;;;12.18;5.40;;;9.20;99.90;;;;;;4973031;28;20076;-88
2023/12/28 03:22:10;;;;;;;12.32;5.45;;;9.20;99.90;;;;;;4980896;28;20489;-87
2023/12/28 03:24:37;;;;;;;9.25;4.57;;;9.20;99.90;;;;;;4974347;28;20194;-89
2023/12/28 03:27:04;;;;;;;10.23;5.53;;;9.20;99.90;;;;;;4977459;28;20046;-89
2023/12/28 03:29:29;;;;;;;9.68;5.10;;;9.20;99.90;;;;;;4977383;28;20101;-87
2023/12/28 03:31:55;;;;;;;10.18;5.70;;;9.10;99.90;;;;;;4991403;28;20488;-87
2023/12/28 03:34:22;;;;;;;11.40;5.00;;;9.20;99.90;;;;;;4977177;28;20109;-87
2023/12/28 03:36:48;;;;;;;10.20;5.07;;;9.10;99.90;;;;;;4982261;28;20061;-88
2023/12/28 03:39:14;;;;;;;6.60;4.40;;;9.10;99.90;;;;;;4978956;28;20018;-88
2023/12/28 03:41:39;;;;;;;9.00;5.00;;;9.10;99.90;;;;;;4977061;28;20451;-88
2023/12/28 03:44:05;;;;;;;9.75;5.07;;;9.10;99.90;;;;;;4994088;28;20476;-88
2023/12/28 03:46:30;;;;;;;9.27;4.82;;;9.20;99.90;;;;;;4994525;28;20033;-88
2023/12/28 03:48:56;;;;;;;8.23;4.93;;;9.10;99.90;;;;;;4974007;28;20015;-89
2023/12/28 03:51:21;;;;;;;9.65;5.25;;;9.20;99.90;;;;;;4985130;28;20030;-87
2023/12/28 03:53:47;;;;;;;9.25;4.88;;;9.10;99.90;;;;;;4977023;28;20057;-89
2023/12/28 03:56:21;;;;;;;14.43;5.20;;;9.10;99.90;;;;;;4977018;28;20396;-88
2023/12/28 03:58:47;;;;;;;8.43;5.00;;;9.10;99.90;;;;;;4973113;28;20058;-88
2023/12/28 04:01:12;;;;;;;13.38;4.63;;;9.10;99.90;;;;;;4976891;28;20057;-88
2023/12/28 04:03:38;;;;;;;11.20;5.00;;;9.10;99.90;;;;;;4976240;28;20050;-88
2023/12/28 04:06:03;;;;;;;8.50;4.80;;;9.10;99.90;;;;;;4976922;28;20117;-88
2023/12/28 04:08:29;;;;;;;11.43;5.10;;;9.10;99.90;;;;;;4994200;28;20026;-87
2023/12/28 04:10:55;;;;;;;10.95;4.95;;;9.10;99.90;;;;;;4977489;28;20018;-88
2023/12/28 04:13:20;;;;;;;9.55;5.13;;;9.10;99.90;;;;;;4973336;28;20023;-88
2023/12/28 04:15:46;;;;;;;7.93;4.80;;;9.10;99.90;;;;;;4990592;28;20158;-88
2023/12/28 04:18:11;;;;;;;8.95;4.65;;;9.20;99.90;;;;;;4976890;28;20026;-89
2023/12/28 04:20:37;;;;;;;7.72;4.70;;;9.10;99.90;;;;;;4993678;28;20026;-89
2023/12/28 04:23:03;;;;;;;8.07;4.15;;;9.20;99.90;;;;;;4976698;28;20022;-89
2023/12/28 04:25:28;;;;;;;9.32;4.38;;;9.10;99.90;;;;;;4989365;28;20027;-88
2023/12/28 04:27:54;;;;;;;12.55;4.90;;;9.10;99.90;;;;;;4983018;28;20034;-87
2023/12/28 04:30:19;;;;;;;10.00;4.90;;;9.10;99.90;;;;;;4985248;28;20025;-88
2023/12/28 04:32:45;;;;;;;10.70;4.75;;;9.10;99.90;;;;;;4982792;28;20028;-89
2023/12/28 04:35:10;;;;;;;9.77;3.97;;;9.10;99.90;;;;;;4983499;28;20399;-89
2023/12/28 04:37:36;;;;;;;8.50;4.82;;;9.10;99.90;;;;;;4993338;28;20062;-88
2023/12/28 04:40:03;;;;;;;7.72;4.18;;;9.10;99.90;;;;;;4974931;28;20046;-89
2023/12/28 04:42:29;;;;;;;9.48;4.35;;;9.10;99.90;;;;;;4976033;28;20054;-88
2023/12/28 04:44:54;;;;;;;6.05;4.03;;;9.10;99.90;;;;;;4982415;28;20061;-88
2023/12/28 04:47:20;;;;;;;7.07;4.50;;;9.20;99.90;;;;;;4974543;28;20023;-88
2023/12/28 04:49:45;;;;;;;9.93;4.40;;;9.10;99.90;;;;;;4976057;28;20030;-87
2023/12/28 04:52:11;;;;;;;7.03;4.03;;;9.20;99.90;;;;;;4975990;28;20018;-88
2023/12/28 04:54:40;;;;;;;6.93;4.35;;;9.10;99.90;;;;;;4986386;28;20059;-88
2023/12/28 04:57:08;;;;;;;7.22;3.97;;;9.10;99.90;;;;;;4976083;28;20027;-88
2023/12/28 04:59:40;;;;;;;9.43;4.68;;;9.10;99.90;;;;;;4993147;28;20145;-87
2023/12/28 05:02:05;;;;;;;8.45;3.97;;;9.10;99.90;;;;;;4969273;28;20109;-88
2023/12/28 05:04:31;;;;;;;7.47;3.90;;;9.10;99.90;;;;;;4980349;28;20125;-87
2023/12/28 05:06:56;;;;;;;12.52;5.00;;;9.10;99.90;;;;;;4975363;28;20023;-88
2023/12/28 05:09:22;;;;;;;7.95;4.07;;;9.10;99.90;;;;;;4973126;28;20022;-88
2023/12/28 05:11:47;;;;;;;8.43;4.32;;;9.10;99.90;;;;;;4975540;28;20026;-88
2023/12/28 05:14:13;;;;;;;8.95;4.85;;;9.10;99.90;;;;;;4971754;28;20577;-88
2023/12/28 05:16:39;;;;;;;10.93;4.45;;;9.10;99.90;;;;;;4975547;28;20034;-89
2023/12/28 05:19:04;;;;;;;9.48;4.70;;;9.10;99.90;;;;;;4975648;28;20058;-89
2023/12/28 05:21:30;;;;;;;8.75;4.82;;;9.10;99.90;;;;;;4992678;28;20109;-88
2023/12/28 05:23:55;;;;;;;8.90;3.97;;;9.10;99.90;;;;;;4974953;28;20015;-88
2023/12/28 05:26:21;;;;;;;7.35;4.57;;;9.10;99.90;;;;;;4975082;28;20515;-89
2023/12/28 05:28:46;;;;;;;10.55;4.60;;;9.10;99.90;;;;;;4982535;28;20023;-87
2023/12/28 05:31:13;;;;;;;6.95;4.22;;;9.10;99.90;;;;;;4991465;28;20026;-88
2023/12/28 05:33:38;;;;;;;5.63;3.65;;;9.10;99.90;;;;;;4970487;28;20053;-88
2023/12/28 05:36:05;;;;;;;7.57;4.53;;;9.10;99.90;;;;;;4991733;28;20037;-89
2023/12/28 05:38:31;;;;;;;9.63;4.07;;;9.10;99.90;;;;;;4992523;28;20039;-89
2023/12/28 05:40:56;;;;;;;11.73;4.15;;;9.10;99.90;;;;;;4974457;28;20030;-88
2023/12/28 05:43:22;;;;;;;7.90;4.80;;;9.10;99.90;;;;;;4974927;28;20041;-87
2023/12/28 05:45:47;;;;;;;7.45;4.20;;;9.10;99.90;;;;;;4974711;28;20033;-88
2023/12/28 05:48:13;;;;;;;9.77;4.70;;;9.10;99.90;;;;;;4974878;28;20034;-90
2023/12/28 05:50:38;;;;;;;6.57;3.92;;;9.10;99.90;;;;;;4975962;28;20023;-88
2023/12/28 05:53:04;;;;;;;7.68;4.65;;;9.10;99.90;;;;;;4975512;28;20010;-90
2023/12/28 05:55:29;;;;;;;7.72;4.38;;;9.10;99.90;;;;;;4975841;28;20026;-89
2023/12/28 05:57:55;;;;;;;8.55;4.22;;;9.10;99.90;;;;;;4983824;28;20042;-90
2023/12/28 06:00:20;;;;;;;6.70;3.70;;;9.10;99.90;;;;;;4992955;28;20088;-90
2023/12/28 06:02:46;;;;;;;9.23;4.07;;;9.10;99.90;;;;;;4975709;28;20023;-89
2023/12/28 06:05:12;;;;;;;10.35;4.63;;;9.10;99.90;;;;;;4978257;28;20117;-89
2023/12/28 06:07:38;;;;;;;6.35;4.20;;;9.10;99.90;;;;;;4975552;28;20068;-87
2023/12/28 06:10:04;;;;;;;9.68;3.95;;;9.10;99.90;;;;;;4975698;28;20019;-89
2023/12/28 06:12:30;;;;;;;6.82;3.72;;;9.10;99.90;;;;;;4994117;28;20027;-90
2023/12/28 06:14:55;;;;;;;7.68;3.75;;;9.10;99.90;;;;;;4975091;28;20019;-90
2023/12/28 06:17:21;;;;;;;9.82;3.88;;;9.10;99.90;;;;;;4975048;28;20038;-89
2023/12/28 06:19:46;;;;;;;6.43;3.63;;;9.10;99.90;;;;;;4993138;28;20050;-88
2023/12/28 06:22:12;;;;;;;7.38;4.18;;;9.10;99.90;;;;;;4974377;28;20547;-88
2023/12/28 06:24:39;;;;;;;8.77;4.07;;;9.10;99.90;;;;;;4974710;28;20081;-89
2023/12/28 06:27:04;;;;;;;7.45;4.30;;;9.20;99.90;;;;;;4988749;28;20027;-89
2023/12/28 06:29:30;;;;;;;10.60;4.07;;;9.10;99.90;;;;;;4982780;28;20028;-89
2023/12/28 06:31:55;;;;;;;7.43;4.45;;;9.10;99.90;;;;;;4965579;28;20031;-89
2023/12/28 06:34:21;;;;;;;7.03;3.90;;;9.10;99.90;;;;;;4976472;28;20026;-87
2023/12/28 06:36:47;;;;;;;8.10;4.30;;;9.10;99.90;;;;;;4981865;28;20026;-88
2023/12/28 06:39:12;;;;;;;7.40;3.78;;;9.10;99.90;;;;;;4987670;28;20034;-88
2023/12/28 06:41:38;;;;;;;13.75;4.65;;;9.00;99.90;;;;;;4965225;28;20477;-88
2023/12/28 06:44:03;;;;;;;9.32;4.78;;;9.00;99.90;;;;;;4972937;28;20014;-88
2023/12/28 06:46:29;;;;;;;7.00;4.18;;;9.10;99.90;;;;;;4970862;28;20492;-89
2023/12/28 06:48:55;;;;;;;8.07;4.55;;;9.10;99.90;;;;;;4972876;28;20030;-89
2023/12/28 06:51:21;;;;;;;9.93;4.50;;;9.10;99.90;;;;;;4961148;28;20054;-89
2023/12/28 06:53:48;;;;;;;8.30;4.43;;;9.10;99.90;;;;;;4983651;28;20046;-88
2023/12/28 06:56:14;;;;;;;8.68;4.72;;;9.10;99.90;;;;;;4969534;28;20117;-89
2023/12/28 06:58:40;;;;;;;6.30;3.97;;;9.10;99.90;;;;;;4977186;28;20480;-88
2023/12/28 07:01:06;;;;;;;9.98;4.68;;;9.10;99.90;;;;;;4977098;28;20065;-90
2023/12/28 07:03:32;;;;;;;8.18;4.72;;;9.20;99.90;;;;;;4972678;28;20114;-87
2023/12/28 07:06:02;;;;;;;9.88;4.10;;;9.10;99.90;;;;;;4993546;28;20037;-89
2023/12/28 07:08:28;;;;;;;8.43;4.05;;;9.10;99.90;;;;;;4995304;28;20489;-89
2023/12/28 07:10:54;;;;;;;7.32;3.85;;;9.10;99.90;;;;;;4974094;28;20122;-88
2023/12/28 07:13:19;;;;;;;7.07;4.38;;;9.10;99.90;;;;;;4970997;28;20042;-89
2023/12/28 07:15:45;;;;;;;4.95;3.50;;;9.10;99.90;;;;;;4967212;28;20038;-89
2023/12/28 07:18:11;;;;;;;6.68;4.28;;;9.10;99.90;;;;;;4981856;28;20018;-87
2023/12/28 07:20:36;;;;;;;8.48;4.28;;;9.10;99.90;;;;;;4974450;28;20035;-87
2023/12/28 07:23:03;;;;;;;8.13;4.30;;;9.10;99.90;;;;;;4974570;28;20081;-89
2023/12/28 07:25:28;;;;;;;9.10;4.10;;;9.10;99.90;;;;;;4977284;28;20110;-89
2023/12/28 07:27:54;;;;;;;8.25;4.53;;;9.10;99.90;;;;;;4974140;28;20125;-89
2023/12/28 07:30:19;;;;;;;9.20;4.20;;;9.20;99.90;;;;;;4971101;28;20065;-89
2023/12/28 07:32:45;;;;;;;6.68;4.00;;;9.10;99.90;;;;;;4974773;28;20030;-88
2023/12/28 07:35:11;;;;;;;6.90;4.30;;;9.20;99.90;;;;;;4977159;28;20574;-88
2023/12/28 07:37:37;;;;;;;8.15;4.55;;;9.20;99.90;;;;;;4977542;28;20034;-89
2023/12/28 07:40:03;;;;;;;15.32;5.13;;;9.20;99.90;;;;;;4993771;28;20034;-90
2023/12/28 07:42:29;;;;;;;7.78;4.47;;;9.20;99.90;;;;;;4978448;28;20037;-89
2023/12/28 07:44:55;;;;;;;7.25;4.07;;;9.20;99.90;;;;;;4975195;28;20026;-87
2023/12/28 07:47:20;;;;;;;8.25;4.80;;;9.20;99.90;;;;;;4989297;28;20029;-89
2023/12/28 07:49:46;;;;;;;9.70;5.03;;;9.30;99.90;;;;;;4974597;28;20029;-88
2023/12/28 07:52:11;;;;;;;12.90;4.90;;;9.20;99.90;;;;;;4987089;28;20022;-89
2023/12/28 07:54:37;;;;;;;9.23;4.35;;;9.30;99.90;;;;;;4976347;28;20026;-89
2023/12/28 07:57:03;;;;;;;8.05;4.53;;;9.30;99.90;;;;;;4963264;28;20073;-89
2023/12/28 07:59:28;;;;;;;12.25;5.25;;;9.30;99.90;;;;;;4966603;28;20027;-90
2023/12/28 08:01:55;;;;;;;7.78;3.55;;;9.30;99.90;;;;;;4972982;28;20122;-87
2023/12/28 08:04:20;;;;;;;8.52;4.40;;;9.30;99.90;;;;;;4970614;28;20731;-90
2023/12/28 08:06:46;;;;;;;11.15;5.15;;;9.20;99.90;;;;;;4976665;28;20026;-87
2023/12/28 08:09:12;;;;;;;7.05;4.57;;;9.20;99.90;;;;;;4994477;28;20025;-89
2023/12/28 08:11:37;;;;;;;7.53;4.63;;;9.20;99.90;;;;;;4991367;28;20506;-88
2023/12/28 08:14:03;;;;;;;7.78;4.43;;;9.20;99.90;;;;;;4970100;28;20031;-90
2023/12/28 08:16:28;;;;;;;9.18;5.00;;;9.20;99.90;;;;;;4975249;28;20057;-90
2023/12/28 08:18:54;;;;;;;9.68;4.68;;;9.30;99.90;;;;;;4984801;28;20026;-90
2023/12/28 08:21:19;;;;;;;7.47;4.10;;;9.20;99.90;;;;;;4976606;28;20141;-90
2023/12/28 08:23:45;;;;;;;5.60;3.90;;;9.20;99.90;;;;;;4992739;28;20031;-92
2023/12/28 08:26:10;;;;;;;6.70;3.90;;;9.20;99.90;;;;;;4968042;28;20044;-88
2023/12/28 08:28:36;;;;;;;7.65;4.63;;;9.20;99.90;;;;;;4972770;28;20030;-91
2023/12/28 08:31:02;;;;;;;8.55;5.07;;;9.20;99.90;;;;;;4986473;28;20018;-88
2023/12/28 08:33:27;;;;;;;7.30;4.40;;;9.20;99.90;;;;;;4972129;28;20392;-88
2023/12/28 08:35:53;;;;;;;8.82;3.97;;;9.20;99.90;;;;;;4970569;28;20073;-89
2023/12/28 08:38:19;;;;;;;6.70;3.85;;;9.20;99.90;;;;;;4970442;28;20030;-90
2023/12/28 08:40:45;;;;;;;11.10;4.35;;;9.20;99.90;;;;;;4976436;28;20065;-91
2023/12/28 08:43:10;;;;;;;7.38;4.55;;;9.20;99.90;;;;;;4975903;28;20026;-90
2023/12/28 08:45:36;;;;;;;11.57;3.92;;;9.20;99.90;;;;;;4993935;28;20048;-90
2023/12/28 08:48:03;;;;;;;7.38;4.25;;;9.20;99.90;;;;;;4968464;28;20049;-91
2023/12/28 08:50:28;;;;;;;7.85;3.72;;;9.20;99.90;;;;;;4973377;28;20110;-89
2023/12/28 08:52:54;;;;;;;8.57;4.13;;;9.20;99.90;;;;;;4990706;28;20046;-91
2023/12/28 08:55:21;;;;;;;5.60;3.50;;;9.20;99.90;;;;;;4976874;28;20085;-91
2023/12/28 08:57:47;;;;;;;6.20;3.75;;;9.20;99.90;;;;;;4966789;28;20027;-90
2023/12/28 09:00:14;;;;;;;8.77;4.30;;;9.20;99.90;;;;;;4973109;28;20019;-90
2023/12/28 09:02:40;;;;;;;7.28;4.03;;;9.20;99.90;;;;;;4972538;28;20128;-90
2023/12/28 09:05:06;;;;;;;4.45;3.42;;;9.20;99.90;;;;;;4968486;28;20030;-90
2023/12/28 09:07:32;;;;;;;6.82;4.22;;;9.20;99.90;;;;;;4971874;28;20018;-90
2023/12/28 09:09:58;;;;;;;9.07;3.90;;;9.20;99.90;;;;;;4971358;28;20019;-91
2023/12/28 09:12:23;;;;;;;6.82;3.80;;;9.20;99.90;;;;;;4978441;28;20113;-90
2023/12/28 09:14:52;;;;;;;5.72;3.42;;;9.20;99.90;;;;;;4993274;28;20081;-90
2023/12/28 09:17:20;;;;;;;10.05;4.10;;;9.20;99.90;;;;;;4993215;28;20034;-90
2023/12/28 09:19:46;;;;;;;7.90;4.20;;;9.20;99.90;;;;;;4989109;28;20378;-90
2023/12/28 09:22:11;;;;;;;7.07;3.53;;;9.20;99.90;;;;;;4986153;28;20030;-91
2023/12/28 09:24:37;;;;;;;8.23;4.25;;;9.20;99.90;;;;;;4992066;28;20089;-90
2023/12/28 09:27:03;;;;;;;8.45;3.80;;;9.20;99.90;;;;;;4968747;28;20129;-90
2023/12/28 09:29:28;;;;;;;7.22;4.10;;;9.20;99.90;;;;;;4985369;28;20070;-90
2023/12/28 09:31:54;;;;;;;8.27;3.92;;;9.20;99.90;;;;;;4973025;28;20037;-90
2023/12/28 09:34:20;;;;;;;7.38;4.18;;;9.10;99.90;;;;;;4969391;28;20030;-91
2023/12/28 09:36:45;;;;;;;7.38;4.00;;;9.20;99.90;;;;;;4979389;28;20038;-92
2023/12/28 09:39:11;;;;;;;8.48;3.92;;;9.20;99.90;;;;;;4972342;28;20713;-90
2023/12/28 09:41:40;;;;;;;9.55;4.18;;;9.20;99.90;;;;;;4972942;28;20105;-92
2023/12/28 09:44:11;;;;;;;8.00;3.70;;;9.20;99.90;;;;;;4987075;28;20113;-92
2023/12/28 09:46:38;;;;;;;6.78;3.65;;;9.20;99.90;;;;;;4965986;28;20031;-90
2023/12/28 09:49:04;;;;;;;6.72;4.15;;;9.20;99.90;;;;;;4973512;28;20488;-93
2023/12/28 09:51:30;;;;;;;5.65;3.90;;;9.20;99.90;;;;;;4976986;28;20030;-91
2023/12/28 09:53:56;;;;;;;9.10;4.07;;;9.20;99.90;;;;;;4991968;28;20018;-91
2023/12/28 09:56:23;;;;;;;8.88;3.40;;;9.20;99.90;;;;;;4972670;28;20117;-88
2023/12/28 09:58:50;;;;;;;8.90;4.00;;;9.20;99.90;;;;;;4978724;28;20404;-90
2023/12/28 10:01:17;;;;;;;6.38;3.42;;;9.20;99.90;;;;;;4976208;28;20036;-90
2023/12/28 10:03:43;;;;;;;4.22;3.10;;;9.20;99.90;;;;;;4973843;28;20031;-89
2023/12/28 10:06:08;;;;;;;8.10;4.18;;;9.20;99.90;;;;;;4966226;28;20041;-88
2023/12/28 10:08:35;;;;;;;7.00;3.88;;;9.20;99.90;;;;;;4973209;28;20026;-90
2023/12/28 10:11:02;;;;;;;8.93;4.25;;;9.20;99.90;;;;;;4980777;28;20019;-88
2023/12/28 10:13:28;;;;;;;7.95;3.33;;;9.20;99.90;;;;;;4988330;28;20527;-89
2023/12/28 10:15:57;;;;;;;6.78;3.72;;;9.20;99.90;;;;;;4967888;28;20117;-91
2023/12/28 10:18:23;;;;;;;8.70;3.85;;;9.20;99.90;;;;;;4992527;28;20109;-90
2023/12/28 10:20:52;;;;;;;7.20;3.10;;;9.20;99.90;;;;;;4985753;28;20050;-91
2023/12/28 10:23:19;;;;;;;6.93;4.13;;;9.20;99.90;;;;;;4973368;28;21202;-90
2023/12/28 10:25:45;;;;;;;6.88;3.38;;;9.20;99.90;;;;;;4968901;28;20556;-91
2023/12/28 10:28:15;;;;;;;8.23;4.22;;;9.20;99.90;;;;;;4971519;28;20030;-91
2023/12/28 10:30:41;;;;;;;7.00;3.83;;;9.30;99.90;;;;;;4974392;28;20195;-90
2023/12/28 10:33:07;;;;;;;7.53;3.50;;;9.20;99.90;;;;;;4968524;28;20034;-89
2023/12/28 10:35:32;;;;;;;6.15;4.28;;;9.20;99.90;;;;;;4996248;28;20025;-90
2023/12/28 10:38:00;;;;;;;8.60;3.67;;;9.30;99.90;;;;;;4983972;28;20036;-90
2023/12/28 10:40:27;;;;;;;7.13;4.35;;;9.30;99.90;;;;;;4982204;28;20409;-91
2023/12/28 10:42:58;;;;;;;6.43;3.47;;;9.20;99.90;;;;;;4990069;28;20030;-92
2023/12/28 10:45:25;;;;;;;8.68;3.90;;;9.20;99.90;;;;;;4976376;28;20489;-90
2023/12/28 10:48:01;;;;;;;5.30;3.65;;;9.20;99.90;;;;;;4979073;28;20109;-90
2023/12/28 10:50:29;;;;;;;7.20;3.97;;;9.20;99.90;;;;;;4990590;28;20027;-90
2023/12/28 10:53:05;;;;;;;10.85;4.30;;;9.30;99.90;;;;;;4985042;28;20018;-91
2023/12/28 10:55:41;;;;;;;8.02;4.00;;;9.20;99.90;;;;;;4971593;28;20488;-90
2023/12/28 10:58:37;;;;;;;6.38;3.58;;;9.30;99.90;;;;;;4976007;28;20027;-89
2023/12/28 11:01:09;;;;;;;6.63;3.40;;;9.20;99.90;;;;;;4978782;28;20034;-89
2023/12/28 11:03:40;;;;;;;7.57;4.13;;;9.20;99.90;;;;;;4975534;28;20026;-90
2023/12/28 11:06:08;;;;;;;7.07;3.88;;;9.20;99.90;;;;;;4989721;28;20082;-90
2023/12/28 11:08:35;;;;;;;6.82;3.53;;;9.20;99.90;;;;;;4978289;28;20460;-90
2023/12/28 11:11:03;;;;;;;5.45;3.38;;;9.20;99.90;;;;;;4968678;28;20019;-88
2023/12/28 11:13:30;;;;;;;7.60;3.70;;;9.20;99.90;;;;;;4969924;28;20030;-89
2023/12/28 11:15:57;;;;;;;8.90;3.85;;;9.20;99.90;;;;;;4972270;28;20402;-89
2023/12/28 11:18:23;;;;;;;7.15;3.78;;;9.20;99.90;;;;;;4975181;28;20113;-89
2023/12/28 11:20:50;;;;;;;13.70;3.60;;;9.20;99.90;;;;;;4968903;28;20034;-89
2023/12/28 11:23:16;;;;;;;5.70;3.55;;;9.20;99.90;;;;;;4992450;28;20165;-91
2023/12/28 11:25:42;;;;;;;7.15;3.10;;;9.20;99.90;;;;;;4971713;28;20030;-92
2023/12/28 11:28:10;;;;;;;9.45;3.58;;;9.20;99.90;;;;;;4975710;28;20049;-90
2023/12/28 11:30:36;;;;;;;10.32;4.30;;;9.20;99.90;;;;;;4974602;28;20022;-91
2023/12/28 11:33:04;;;;;;;8.05;3.90;;;9.30;99.90;;;;;;4982562;28;20022;-91
2023/12/28 11:35:39;;;;;;;6.22;3.80;;;9.20;99.90;;;;;;4966876;28;20142;-91
2023/12/28 11:38:09;;;;;;;4.95;3.55;;;9.30;99.90;;;;;;4972081;28;20055;-91
2023/12/28 11:40:49;;;;;;;8.35;3.65;;;9.30;99.90;;;;;;4993179;28;20026;-91
2023/12/28 11:43:19;;;;;;;7.32;4.20;;;9.30;99.90;;;;;;4993815;28;20080;-91
2023/12/28 11:45:55;;;;;;;8.70;3.72;;;9.30;99.90;;;;;;4971367;28;20035;-91
2023/12/28 11:48:27;;;;;;;5.88;3.33;;;9.30;99.90;;;;;;4968037;28;20525;-90
2023/12/28 11:50:57;;;;;;;6.93;3.95;;;9.30;99.90;;;;;;4968546;28;20073;-91
2023/12/28 11:53:23;;;;;;;6.10;3.55;;;9.30;99.90;;;;;;4971493;28;20510;-91
2023/12/28 11:55:49;;;;;;;6.22;3.35;;;9.30;99.90;;;;;;4968522;28;20057;-91
2023/12/28 11:58:19;;;;;;;10.32;3.83;;;9.30;99.90;;;;;;4967209;28;20030;-90
2023/12/28 12:00:45;;;;;;;7.28;3.92;;;9.30;99.90;;;;;;4977958;28;20029;-91
2023/12/28 12:03:13;;;;;;;7.60;4.03;;;9.30;99.90;;;;;;4969237;28;20031;-91
2023/12/28 12:05:39;;;;;;;7.35;4.25;;;9.30;99.90;;;;;;4974720;28;20027;-91
2023/12/28 12:08:13;;;;;;;7.78;4.15;;;9.30;99.90;;;;;;4985206;28;20167;-91
2023/12/28 12:10:39;;;;;;;5.53;3.47;;;9.30;99.90;;;;;;4995607;28;20106;-90
2023/12/28 12:13:04;;;;;;;11.35;3.80;;;9.30;99.90;;;;;;4975070;28;20114;-91
2023/12/28 12:15:30;;;;;;;8.73;3.90;;;9.30;99.90;;;;;;4981839;28;20117;-91
2023/12/28 12:17:56;;;;;;;9.88;4.13;;;9.30;99.90;;;;;;4984842;28;20030;-91
2023/12/28 12:20:23;;;;;;;6.43;3.80;;;9.30;99.90;;;;;;4976047;28;20034;-89
2023/12/28 12:22:49;;;;;;;6.35;3.25;;;9.30;99.90;;;;;;4971975;28;20093;-89
2023/12/28 12:25:16;;;;;;;7.22;4.05;;;9.30;99.90;;;;;;4969723;28;20783;-91
2023/12/28 12:27:41;;;;;;;6.93;3.83;;;9.30;99.90;;;;;;4989481;28;20113;-90
2023/12/28 12:30:07;;;;;;;8.60;3.85;;;9.30;99.90;;;;;;4972932;28;20104;-90
2023/12/28 12:32:37;;;;;;;11.38;3.92;;;9.30;99.90;;;;;;4990761;28;20014;-90
2023/12/28 12:35:03;;;;;;;8.48;4.32;;;9.30;99.90;;;;;;4970002;28;20688;-92
2023/12/28 12:37:29;;;;;;;9.00;3.58;;;9.30;99.90;;;;;;4972456;28;20046;-91
2023/12/28 12:39:55;;;;;;;6.63;3.78;;;9.30;99.90;;;;;;4975980;28;20023;-91
2023/12/28 12:42:20;;;;;;;8.43;4.53;;;9.40;99.90;;;;;;4977133;28;20030;-88
2023/12/28 12:44:46;;;;;;;6.72;3.80;;;9.30;99.90;;;;;;4972616;28;20078;-94
2023/12/28 12:47:13;;;;;;;6.80;4.28;;;9.40;99.90;;;;;;4991053;28;20570;-90
2023/12/28 12:49:38;;;;;;;6.68;3.70;;;9.40;99.90;;;;;;4972513;28;20057;-90
2023/12/28 12:52:06;;;;;;;6.75;3.90;;;9.40;99.90;;;;;;4968902;28;20049;-90